Time;durP1;ratioP1;P1;durP2;ratioP2;P2;SDS_P1;SDS_P2;PMS_P1;PMS_P2;Temp;Humidity;BMP_temperature;BMP_pressure;BME280_temperature;BME280_humidity;BME280_pressure;Samples;Min_cycle;Max_cycle;Signal;HPM_P1;HPM_P2
2022/07/10 00:02:15;;;;;;;5.47;2.67;;;15.10;99.90;;;;;;5075296;28;20032;-94
2022/07/10 00:04:40;;;;;;;4.00;2.90;;;15.10;99.90;;;;;;5057563;28;20036;-93
2022/07/10 00:07:06;;;;;;;5.80;2.92;;;15.00;99.90;;;;;;5057099;28;20028;-92
2022/07/10 00:09:32;;;;;;;4.05;2.58;;;15.00;99.90;;;;;;5057233;28;20024;-94
2022/07/10 00:11:57;;;;;;;7.93;3.35;;;15.00;99.90;;;;;;5056686;28;20029;-94
2022/07/10 00:14:24;;;;;;;5.70;3.20;;;15.00;99.90;;;;;;5057165;28;20453;-94
2022/07/10 00:16:49;;;;;;;8.50;2.70;;;14.90;99.90;;;;;;5056302;28;20565;-93
2022/07/10 00:19:15;;;;;;;4.32;2.70;;;14.90;99.90;;;;;;5056963;28;20032;-94
2022/07/10 00:21:41;;;;;;;6.15;2.40;;;14.90;99.90;;;;;;5056920;28;20043;-93
2022/07/10 00:24:07;;;;;;;5.40;2.25;;;14.80;99.90;;;;;;5073918;28;20103;-93
2022/07/10 00:26:32;;;;;;;3.05;2.70;;;14.80;99.90;;;;;;5056144;28;20035;-93
2022/07/10 00:28:58;;;;;;;5.35;2.67;;;14.80;99.90;;;;;;5056308;28;20028;-91
2022/07/10 00:31:24;;;;;;;8.73;4.97;;;14.70;99.90;;;;;;5073818;28;20056;-93
2022/07/10 00:33:50;;;;;;;8.77;5.97;;;14.70;99.90;;;;;;5056205;28;20400;-94
2022/07/10 00:36:17;;;;;;;4.70;3.13;;;14.60;99.90;;;;;;5057074;28;20025;-93
2022/07/10 00:38:43;;;;;;;4.43;3.22;;;14.60;99.90;;;;;;5056594;28;20021;-92
2022/07/10 00:41:09;;;;;;;7.22;3.40;;;14.60;99.90;;;;;;5056129;28;20029;-92
2022/07/10 00:43:57;;;;;;;4.10;2.72;;;14.60;99.90;;;;;;5059124;28;20044;-92
2022/07/10 00:46:24;;;;;;;4.68;2.60;;;14.50;99.90;;;;;;5057150;28;20123;-92
2022/07/10 00:48:50;;;;;;;2.97;2.22;;;14.50;99.90;;;;;;5055806;28;20024;-90
2022/07/10 00:51:17;;;;;;;5.45;3.67;;;14.50;99.90;;;;;;5073587;28;20024;-93
2022/07/10 00:53:46;;;;;;;6.95;3.33;;;14.50;99.90;;;;;;5056587;28;20025;-92
2022/07/10 00:56:14;;;;;;;5.25;3.42;;;14.40;99.90;;;;;;5057225;28;20021;-93
2022/07/10 00:58:41;;;;;;;6.40;2.28;;;14.40;99.90;;;;;;5057779;28;20111;-94
2022/07/10 01:01:07;;;;;;;4.97;2.20;;;14.30;99.90;;;;;;5057514;28;20090;-94
2022/07/10 01:03:33;;;;;;;3.30;2.30;;;14.30;99.90;;;;;;5080116;28;20088;-89
2022/07/10 01:05:58;;;;;;;3.08;2.50;;;14.20;99.90;;;;;;5097680;28;20025;-89
2022/07/10 01:08:25;;;;;;;6.30;2.83;;;14.10;99.90;;;;;;5076616;28;20186;-91
2022/07/10 01:10:51;;;;;;;5.47;2.40;;;14.00;99.90;;;;;;5070078;28;20020;-91
2022/07/10 01:13:17;;;;;;;5.50;2.35;;;14.00;99.90;;;;;;5063893;28;20058;-94
2022/07/10 01:15:43;;;;;;;7.57;2.53;;;13.90;99.90;;;;;;5078728;28;20112;-93
2022/07/10 01:18:09;;;;;;;4.07;2.63;;;13.90;99.90;;;;;;5061221;28;20025;-92
2022/07/10 01:20:35;;;;;;;4.53;2.50;;;13.80;99.90;;;;;;5076800;28;20077;-91
2022/07/10 01:23:01;;;;;;;5.65;2.72;;;13.80;99.90;;;;;;5058163;28;20072;-91
2022/07/10 01:25:28;;;;;;;4.90;2.60;;;13.70;99.90;;;;;;5061649;28;20033;-92
2022/07/10 01:27:54;;;;;;;4.35;2.45;;;13.70;99.90;;;;;;5057586;28;20478;-93
2022/07/10 01:30:20;;;;;;;3.85;2.50;;;13.70;99.90;;;;;;5074839;28;20029;-93
2022/07/10 01:32:47;;;;;;;4.57;2.40;;;13.60;99.90;;;;;;5073958;28;20028;-91
2022/07/10 01:35:13;;;;;;;4.25;2.42;;;13.60;99.90;;;;;;5058309;28;20025;-92
2022/07/10 01:37:40;;;;;;;4.25;2.70;;;13.50;99.90;;;;;;5090604;28;20383;-94
2022/07/10 01:40:07;;;;;;;13.75;3.00;;;13.50;99.90;;;;;;5056409;28;20021;-93
2022/07/10 01:42:33;;;;;;;6.55;2.95;;;13.50;99.90;;;;;;5055771;28;20021;-95
2022/07/10 01:44:59;;;;;;;7.80;2.85;;;13.50;99.90;;;;;;5056098;28;20047;-94
2022/07/10 01:47:27;;;;;;;4.47;2.40;;;13.60;99.90;;;;;;5055579;28;20445;-94
2022/07/10 01:49:53;;;;;;;3.33;2.30;;;13.50;99.90;;;;;;5055981;28;20108;-93
2022/07/10 01:52:22;;;;;;;5.60;2.58;;;13.50;99.90;;;;;;5055750;28;20050;-95
2022/07/10 01:54:49;;;;;;;5.93;2.42;;;13.40;99.90;;;;;;5055498;28;20031;-92
2022/07/10 01:57:17;;;;;;;4.80;2.80;;;13.40;99.90;;;;;;5055706;28;20032;-92
2022/07/10 01:59:42;;;;;;;3.55;2.58;;;13.30;99.90;;;;;;5055386;28;20112;-93
2022/07/10 02:02:08;;;;;;;3.42;2.00;;;13.40;99.90;;;;;;5056299;28;20060;-92
2022/07/10 02:04:44;;;;;;;6.18;2.42;;;13.30;99.90;;;;;;5055769;28;20040;-93
2022/07/10 02:07:14;;;;;;;5.22;2.38;;;13.30;99.90;;;;;;5056017;28;20025;-93
2022/07/10 02:09:41;;;;;;;7.82;2.95;;;13.20;99.90;;;;;;5055739;28;20047;-91
2022/07/10 02:12:12;;;;;;;5.00;2.65;;;13.20;99.90;;;;;;5055172;28;20025;-93
2022/07/10 02:14:39;;;;;;;4.32;2.15;;;13.20;99.90;;;;;;5055179;28;20031;-92
2022/07/10 02:17:05;;;;;;;3.25;2.45;;;13.30;99.90;;;;;;5055143;28;20493;-91
2022/07/10 02:19:31;;;;;;;3.97;2.80;;;13.30;99.90;;;;;;5072681;28;20032;-93
2022/07/10 02:21:56;;;;;;;3.83;2.15;;;13.20;99.90;;;;;;5054888;28;20024;-93
2022/07/10 02:24:22;;;;;;;5.88;2.60;;;13.00;99.90;;;;;;5054483;28;20055;-92
2022/07/10 02:26:49;;;;;;;4.85;2.40;;;13.00;99.90;;;;;;5054882;28;20025;-93
2022/07/10 02:29:14;;;;;;;5.07;2.10;;;13.00;99.90;;;;;;5055509;28;20024;-93
2022/07/10 02:31:40;;;;;;;3.65;2.75;;;12.90;99.90;;;;;;5056460;28;20508;-94
2022/07/10 02:34:10;;;;;;;4.40;3.22;;;12.90;99.90;;;;;;5064952;28;20475;-93
2022/07/10 02:36:38;;;;;;;7.17;2.50;;;12.80;99.90;;;;;;5096825;28;20037;-88
2022/07/10 02:39:06;;;;;;;7.22;2.42;;;12.80;99.90;;;;;;5080644;28;20291;-87
2022/07/10 02:41:32;;;;;;;3.97;2.35;;;12.80;99.90;;;;;;5100723;28;20009;-90
2022/07/10 02:43:58;;;;;;;6.47;2.60;;;12.80;99.90;;;;;;5078042;28;20040;-91
2022/07/10 02:46:28;;;;;;;2.80;2.40;;;12.70;99.90;;;;;;5078826;28;20119;-91
2022/07/10 02:48:54;;;;;;;3.03;2.55;;;12.70;99.90;;;;;;5080063;28;20434;-90
2022/07/10 02:51:19;;;;;;;4.45;2.40;;;12.70;99.90;;;;;;5074161;28;20051;-91
2022/07/10 02:53:45;;;;;;;3.20;2.50;;;12.60;99.90;;;;;;5070697;28;20092;-92
2022/07/10 02:56:11;;;;;;;6.55;2.90;;;12.50;99.90;;;;;;5061940;28;20021;-92
2022/07/10 02:58:38;;;;;;;6.07;2.50;;;12.40;99.90;;;;;;5067600;28;20024;-91
2022/07/10 03:01:04;;;;;;;4.20;2.50;;;12.30;99.90;;;;;;5078070;28;20086;-92
2022/07/10 03:03:30;;;;;;;4.90;2.38;;;12.20;99.90;;;;;;5064617;28;20426;-93
2022/07/10 03:05:56;;;;;;;4.50;2.88;;;12.10;99.90;;;;;;5060967;28;20031;-93
2022/07/10 03:08:21;;;;;;;4.22;2.65;;;12.00;99.90;;;;;;5077704;28;20028;-93
2022/07/10 03:10:47;;;;;;;5.80;2.35;;;12.00;99.90;;;;;;5059357;28;20090;-93
2022/07/10 03:13:13;;;;;;;3.65;2.90;;;11.90;99.90;;;;;;5059415;28;20063;-93
2022/07/10 03:15:38;;;;;;;5.03;3.03;;;11.90;99.90;;;;;;5059659;28;20032;-93
2022/07/10 03:18:04;;;;;;;3.80;2.50;;;11.90;99.90;;;;;;5077522;28;20519;-93
2022/07/10 03:20:30;;;;;;;5.22;3.08;;;11.90;99.90;;;;;;5058866;28;20025;-91
2022/07/10 03:22:55;;;;;;;7.80;2.78;;;11.90;99.90;;;;;;5059059;28;20120;-93
2022/07/10 03:25:21;;;;;;;8.10;3.65;;;11.90;99.90;;;;;;5059375;28;20032;-94
2022/07/10 03:27:47;;;;;;;3.90;2.63;;;11.90;99.90;;;;;;5059787;28;20017;-93
2022/07/10 03:30:13;;;;;;;6.07;2.53;;;11.90;99.90;;;;;;5059978;28;20062;-93
2022/07/10 03:32:38;;;;;;;4.75;3.00;;;11.90;99.90;;;;;;5066543;28;20021;-92
2022/07/10 03:35:06;;;;;;;5.60;2.92;;;11.80;99.90;;;;;;5082430;28;20595;-93
2022/07/10 03:37:32;;;;;;;4.10;2.80;;;11.80;99.90;;;;;;5057854;28;20025;-93
2022/07/10 03:39:58;;;;;;;5.78;2.70;;;11.80;99.90;;;;;;5058647;28;20027;-94
2022/07/10 03:42:24;;;;;;;6.57;2.85;;;11.80;99.90;;;;;;5076850;28;20384;-96
2022/07/10 03:44:49;;;;;;;3.20;2.50;;;11.90;99.90;;;;;;5058464;28;20037;-92
2022/07/10 03:47:16;;;;;;;5.72;2.80;;;11.90;99.90;;;;;;5076167;28;20028;-93
2022/07/10 03:49:42;;;;;;;4.20;2.72;;;11.90;99.90;;;;;;5076812;28;20486;-93
2022/07/10 03:52:08;;;;;;;4.10;2.63;;;12.00;99.90;;;;;;5058150;28;20036;-95
2022/07/10 03:54:34;;;;;;;3.47;2.72;;;12.00;99.90;;;;;;5058853;28;20031;-93
2022/07/10 03:59:44;;;;;;;3.28;2.55;;;11.90;99.90;;;;;;5076881;28;20502;-93
2022/07/10 04:02:11;;;;;;;3.58;2.60;;;11.90;99.90;;;;;;5058278;28;20028;-94
2022/07/10 04:04:37;;;;;;;3.28;2.58;;;11.90;99.90;;;;;;5057930;28;20123;-94
2022/07/10 04:07:04;;;;;;;3.10;2.70;;;11.90;99.90;;;;;;5075342;28;20048;-92
2022/07/10 04:09:30;;;;;;;5.25;2.20;;;11.80;99.90;;;;;;5075151;28;20082;-94
2022/07/10 04:11:56;;;;;;;5.72;2.65;;;11.60;99.90;;;;;;5057490;28;20024;-94
2022/07/10 04:14:21;;;;;;;5.07;2.60;;;11.50;99.90;;;;;;5040300;28;20025;-93
2022/07/10 04:16:47;;;;;;;3.75;2.80;;;11.50;99.90;;;;;;5075012;28;20105;-94
2022/07/10 04:19:13;;;;;;;3.90;2.65;;;11.50;99.90;;;;;;5074977;28;20049;-93
2022/07/10 04:21:42;;;;;;;4.50;2.45;;;11.40;99.90;;;;;;5074573;28;20063;-93
2022/07/10 04:24:07;;;;;;;5.53;2.22;;;11.40;99.90;;;;;;5074226;28;20049;-94
2022/07/10 04:26:33;;;;;;;4.18;2.45;;;11.40;99.90;;;;;;5057119;28;20021;-92
2022/07/10 04:29:01;;;;;;;5.38;2.60;;;11.40;99.90;;;;;;5057044;28;20127;-93
2022/07/10 04:31:26;;;;;;;7.30;2.50;;;11.40;99.90;;;;;;5056920;28;20024;-93
2022/07/10 04:33:52;;;;;;;3.15;2.70;;;11.40;99.90;;;;;;5056165;28;20020;-92
2022/07/10 04:36:18;;;;;;;3.55;2.22;;;11.40;99.90;;;;;;5074503;28;20021;-92
2022/07/10 04:38:43;;;;;;;3.13;2.47;;;11.50;99.90;;;;;;5074814;28;20017;-93
2022/07/10 04:41:09;;;;;;;3.33;2.50;;;11.50;99.90;;;;;;5074618;28;20116;-93
2022/07/10 04:43:35;;;;;;;4.95;2.40;;;11.50;99.90;;;;;;5074386;28;20082;-93
2022/07/10 04:46:01;;;;;;;2.97;2.40;;;11.40;99.90;;;;;;5056461;28;20033;-93
2022/07/10 04:48:26;;;;;;;2.40;2.08;;;11.40;99.90;;;;;;5056762;28;20027;-93
2022/07/10 04:50:52;;;;;;;3.92;2.33;;;11.30;99.90;;;;;;5074139;28;20079;-93
2022/07/10 04:53:18;;;;;;;3.75;2.55;;;11.30;99.90;;;;;;5056401;28;20025;-91
2022/07/10 04:55:43;;;;;;;5.85;2.92;;;11.30;99.90;;;;;;5056480;28;20028;-93
2022/07/10 04:58:09;;;;;;;3.13;2.83;;;11.30;99.90;;;;;;5074300;28;20499;-91
2022/07/10 05:00:34;;;;;;;2.60;2.40;;;11.30;99.90;;;;;;5074104;28;20103;-91
2022/07/10 05:03:00;;;;;;;3.92;2.55;;;11.30;99.90;;;;;;5073715;28;20033;-93
2022/07/10 05:05:26;;;;;;;4.95;2.78;;;11.30;99.90;;;;;;5073854;28;20482;-93
2022/07/10 05:07:51;;;;;;;4.70;2.63;;;11.20;99.90;;;;;;5073566;28;20040;-91
2022/07/10 05:10:17;;;;;;;4.30;2.70;;;11.30;99.90;;;;;;5073761;28;20029;-94
2022/07/10 05:12:43;;;;;;;7.00;3.38;;;11.20;99.90;;;;;;5055934;28;20025;-93
2022/07/10 05:15:09;;;;;;;4.47;2.80;;;11.20;99.90;;;;;;5055902;28;20024;-93
2022/07/10 05:17:35;;;;;;;3.63;2.92;;;11.20;99.90;;;;;;5073622;28;20123;-93
2022/07/10 05:20:00;;;;;;;4.40;2.88;;;11.20;99.90;;;;;;5055763;28;20055;-92
2022/07/10 05:22:26;;;;;;;4.40;3.00;;;11.20;99.90;;;;;;5073520;28;20024;-94
2022/07/10 05:24:52;;;;;;;5.63;3.80;;;11.20;99.90;;;;;;5055805;28;20036;-93
2022/07/10 05:27:19;;;;;;;3.53;2.97;;;11.30;99.90;;;;;;5055753;28;20016;-93
2022/07/10 05:29:46;;;;;;;4.88;3.22;;;11.40;99.90;;;;;;5056686;28;20032;-92
2022/07/10 05:32:11;;;;;;;4.43;3.10;;;11.40;99.90;;;;;;5070773;28;20094;-94
2022/07/10 05:34:37;;;;;;;6.50;3.45;;;11.40;99.90;;;;;;5075072;28;20080;-93
2022/07/10 05:37:03;;;;;;;4.40;3.50;;;11.50;99.90;;;;;;5073259;28;20025;-93
2022/07/10 05:39:29;;;;;;;4.30;3.35;;;11.60;99.90;;;;;;5073701;28;20025;-93
2022/07/10 05:41:55;;;;;;;4.32;3.35;;;11.60;99.90;;;;;;5073498;28;20498;-93
2022/07/10 05:44:21;;;;;;;4.72;3.20;;;11.70;99.90;;;;;;5073579;28;20028;-94
2022/07/10 05:46:47;;;;;;;4.53;3.00;;;11.70;99.90;;;;;;5056564;28;20545;-94
2022/07/10 05:49:12;;;;;;;5.03;3.40;;;11.80;99.90;;;;;;5074997;28;20052;-94
2022/07/10 05:51:38;;;;;;;6.50;3.50;;;11.90;99.90;;;;;;5076047;28;20036;-93
2022/07/10 05:54:04;;;;;;;5.38;3.88;;;11.90;99.90;;;;;;5076237;28;20035;-93
2022/07/10 05:56:30;;;;;;;5.47;3.72;;;12.00;99.90;;;;;;5072324;28;20028;-92
2022/07/10 05:58:56;;;;;;;5.00;3.42;;;12.00;99.90;;;;;;5055670;28;20077;-94
2022/07/10 06:01:22;;;;;;;5.60;3.60;;;12.00;99.90;;;;;;5055045;28;20025;-94
2022/07/10 06:03:48;;;;;;;5.95;3.30;;;12.10;99.90;;;;;;5055128;28;20102;-93
2022/07/10 06:06:15;;;;;;;3.95;3.13;;;12.20;99.90;;;;;;5072427;28;20442;-94
2022/07/10 06:08:42;;;;;;;4.47;3.20;;;12.30;99.90;;;;;;5074455;28;20021;-91
2022/07/10 06:11:07;;;;;;;4.05;3.08;;;12.40;99.90;;;;;;5055760;28;20035;-92
2022/07/10 06:13:33;;;;;;;5.43;3.20;;;12.50;99.90;;;;;;5059434;28;20040;-91
2022/07/10 06:15:59;;;;;;;5.22;3.15;;;12.60;99.90;;;;;;5062587;28;20041;-92
2022/07/10 06:18:25;;;;;;;5.13;3.28;;;12.70;99.90;;;;;;5059057;28;20020;-92
2022/07/10 06:20:50;;;;;;;5.65;3.28;;;12.80;99.90;;;;;;5059185;28;20029;-94
2022/07/10 06:23:16;;;;;;;5.03;3.53;;;12.90;99.90;;;;;;5058515;28;20534;-93
2022/07/10 06:25:42;;;;;;;7.82;2.97;;;13.00;99.90;;;;;;5059162;28;20028;-93
2022/07/10 06:28:07;;;;;;;6.85;3.08;;;13.10;99.90;;;;;;5059501;28;20024;-92
2022/07/10 06:30:33;;;;;;;5.90;3.15;;;13.20;99.90;;;;;;5060116;28;20119;-93
2022/07/10 06:32:59;;;;;;;7.93;2.97;;;13.30;99.90;;;;;;5060314;28;20028;-92
2022/07/10 06:35:24;;;;;;;5.95;2.90;;;13.40;99.90;;;;;;5078833;28;20047;-91
2022/07/10 06:37:51;;;;;;;7.40;2.92;;;13.40;99.90;;;;;;5083576;28;20016;-87
2022/07/10 06:40:19;;;;;;;4.53;3.10;;;13.50;99.90;;;;;;5083308;28;20032;-89
2022/07/10 06:42:45;;;;;;;4.40;3.35;;;13.60;99.90;;;;;;5083114;28;20025;-91
2022/07/10 06:45:11;;;;;;;4.78;3.30;;;13.70;99.90;;;;;;5076137;28;20091;-94
2022/07/10 06:47:55;;;;;;;6.47;3.42;;;13.80;99.90;;;;;;5063201;28;20020;-94
2022/07/10 06:50:22;;;;;;;4.40;3.30;;;13.90;99.90;;;;;;5064300;28;20036;-93
2022/07/10 06:52:49;;;;;;;6.05;3.10;;;14.00;99.90;;;;;;5062584;28;20024;-93
2022/07/10 06:55:15;;;;;;;5.53;2.58;;;14.10;99.90;;;;;;5061031;28;20115;-91
2022/07/10 06:57:41;;;;;;;3.75;2.65;;;14.20;99.90;;;;;;5058673;28;20394;-91
2022/07/10 07:00:09;;;;;;;3.25;2.25;;;14.30;99.90;;;;;;5064824;28;20055;-92
2022/07/10 07:02:35;;;;;;;3.42;2.63;;;14.40;99.90;;;;;;5061354;28;20052;-92
2022/07/10 07:05:01;;;;;;;2.85;2.20;;;14.50;99.90;;;;;;5065652;28;20127;-91
2022/07/10 07:07:27;;;;;;;2.97;2.28;;;14.60;99.90;;;;;;5075651;28;20044;-94
2022/07/10 07:09:53;;;;;;;2.22;2.03;;;14.80;99.90;;;;;;5057269;28;20048;-90
2022/07/10 07:12:19;;;;;;;4.95;2.05;;;14.90;99.90;;;;;;5055242;28;20021;-92
2022/07/10 07:14:44;;;;;;;3.00;2.13;;;15.00;99.90;;;;;;5063115;28;20026;-91
2022/07/10 07:17:13;;;;;;;2.70;1.95;;;15.10;99.90;;;;;;5060957;28;20490;-92
2022/07/10 07:25:09;;;;;;;2.80;2.10;;;15.60;99.90;;;;;;5078468;28;20186;-90
2022/07/10 07:27:37;;;;;;;3.15;1.70;;;15.70;99.90;;;;;;5059050;28;20107;-91
2022/07/10 07:30:08;;;;;;;2.92;1.75;;;15.90;99.90;;;;;;5086304;28;20040;-93
2022/07/10 07:32:34;;;;;;;3.40;1.77;;;16.00;99.90;;;;;;5063571;28;20024;-94
2022/07/10 07:35:00;;;;;;;3.58;1.70;;;16.10;99.90;;;;;;5058944;28;20031;-93
2022/07/10 07:37:43;;;;;;;3.85;2.42;;;16.30;99.90;;;;;;5076647;28;20100;-93
2022/07/10 07:40:12;;;;;;;4.15;2.20;;;16.40;99.90;;;;;;5058362;28;20154;-92
2022/07/10 07:42:38;;;;;;;4.43;2.20;;;16.50;99.90;;;;;;5055878;28;20115;-92
2022/07/10 07:45:05;;;;;;;4.40;2.15;;;16.70;99.90;;;;;;5058058;28;20555;-93
2022/07/10 07:47:41;;;;;;;2.83;1.80;;;16.80;99.90;;;;;;5058858;28;20024;-92
2022/07/10 07:50:07;;;;;;;4.78;2.55;;;16.90;99.90;;;;;;5059205;28;20024;-89
2022/07/10 07:52:35;;;;;;;4.90;1.80;;;17.10;99.90;;;;;;5064013;28;20025;-93
2022/07/10 07:55:01;;;;;;;2.05;1.80;;;17.20;99.90;;;;;;5062317;28;20028;-93
2022/07/10 07:57:27;;;;;;;2.60;2.20;;;17.40;99.90;;;;;;5057881;28;20115;-94
2022/07/10 07:59:53;;;;;;;3.78;2.15;;;17.50;99.90;;;;;;5057983;28;20042;-92
2022/07/10 08:02:19;;;;;;;2.97;1.80;;;17.60;99.90;;;;;;5057305;28;20025;-93
2022/07/10 08:04:45;;;;;;;2.53;2.10;;;17.80;99.90;;;;;;5075724;28;20442;-94
2022/07/10 08:07:11;;;;;;;3.22;1.77;;;17.90;99.90;;;;;;5058411;28;20031;-93
2022/07/10 08:09:37;;;;;;;6.55;1.92;;;18.10;99.90;;;;;;5060339;28;20025;-93
2022/07/10 08:12:03;;;;;;;4.57;2.15;;;18.20;99.90;;;;;;5065796;28;20020;-95
2022/07/10 08:14:29;;;;;;;3.42;1.85;;;18.40;99.90;;;;;;5057552;28;20037;-94
2022/07/10 08:16:54;;;;;;;3.83;1.80;;;18.60;99.90;;;;;;5057498;28;20592;-94
2022/07/10 08:19:20;;;;;;;2.28;1.60;;;18.70;99.90;;;;;;5055890;28;20016;-91
2022/07/10 08:21:46;;;;;;;2.72;1.90;;;18.90;99.90;;;;;;5062036;28;20021;-92
2022/07/10 08:24:12;;;;;;;3.47;1.60;;;19.10;99.90;;;;;;5057387;28;20055;-93
2022/07/10 08:26:37;;;;;;;3.83;1.52;;;19.20;99.90;;;;;;5057954;28;20048;-92
2022/07/10 08:29:03;;;;;;;2.85;1.70;;;19.30;99.90;;;;;;5058387;28;20048;-91
2022/07/10 08:31:29;;;;;;;5.60;1.73;;;19.50;99.90;;;;;;5061084;28;20020;-91
2022/07/10 08:33:55;;;;;;;2.85;1.63;;;19.70;99.90;;;;;;5062783;28;20107;-93
2022/07/10 08:36:20;;;;;;;2.85;1.70;;;19.80;99.90;;;;;;5056508;28;20021;-95
2022/07/10 08:38:47;;;;;;;3.22;1.60;;;20.00;99.90;;;;;;5050637;28;20035;-93
2022/07/10 08:41:14;;;;;;;2.85;1.52;;;20.20;99.90;;;;;;5058652;28;20479;-93
2022/07/10 08:43:40;;;;;;;2.70;1.30;;;20.40;99.90;;;;;;5082320;28;20025;-92
2022/07/10 08:46:06;;;;;;;1.40;1.30;;;20.60;99.90;;;;;;5076068;28;20039;-94
2022/07/10 08:48:33;;;;;;;3.03;1.20;;;20.70;99.90;;;;;;5065668;28;20055;-95
2022/07/10 08:51:07;;;;;;;2.53;1.33;;;20.90;99.90;;;;;;5058454;28;20029;-95
2022/07/10 08:53:32;;;;;;;1.40;1.10;;;21.10;99.90;;;;;;5055979;28;20107;-92
2022/07/10 08:55:59;;;;;;;2.67;1.02;;;21.30;99.20;;;;;;5055387;28;20051;-95
2022/07/10 08:58:26;;;;;;;1.45;1.17;;;21.50;98.10;;;;;;5058788;28;20518;-93
2022/07/10 09:00:53;;;;;;;1.92;0.90;;;21.70;96.80;;;;;;5056484;28;20093;-95
2022/07/10 09:03:19;;;;;;;1.98;1.02;;;21.90;95.60;;;;;;5055291;28;20024;-94
2022/07/10 09:05:46;;;;;;;1.40;0.85;;;22.10;94.30;;;;;;5060987;28;20040;-94
2022/07/10 09:08:23;;;;;;;2.70;0.98;;;22.20;93.30;;;;;;5059303;28;20020;-95
2022/07/10 09:10:50;;;;;;;2.75;1.20;;;22.50;92.10;;;;;;5048209;28;20017;-93
2022/07/10 09:13:18;;;;;;;1.40;0.90;;;22.60;91.20;;;;;;5057058;28;20029;-95
2022/07/10 09:15:48;;;;;;;3.22;0.93;;;22.80;90.60;;;;;;5062677;28;20012;-96
2022/07/10 09:18:23;;;;;;;2.03;0.90;;;23.00;89.00;;;;;;5058099;28;20452;-94
2022/07/10 09:20:49;;;;;;;1.25;0.70;;;23.10;87.00;;;;;;5056330;28;20396;-94
2022/07/10 09:23:25;;;;;;;0.95;0.90;;;23.30;85.90;;;;;;5054696;28;20044;-96
2022/07/10 09:25:52;;;;;;;1.50;0.82;;;23.40;84.50;;;;;;5059951;28;20029;-93
2022/07/10 09:28:20;;;;;;;2.53;0.80;;;23.60;83.50;;;;;;5068870;28;20415;-95
2022/07/10 09:30:47;;;;;;;1.17;0.80;;;23.70;82.50;;;;;;5067912;28;20111;-94
2022/07/10 09:33:27;;;;;;;0.98;0.75;;;23.90;81.20;;;;;;5056815;28;20034;-95
2022/07/10 09:36:13;;;;;;;2.05;0.68;;;24.00;80.00;;;;;;5058359;28;20024;-95
2022/07/10 09:38:44;;;;;;;3.60;0.60;;;24.20;78.90;;;;;;5085459;28;20039;-93
2022/07/10 09:41:21;;;;;;;0.55;0.55;;;24.30;77.20;;;;;;5058924;28;20025;-94
2022/07/10 09:43:55;;;;;;;2.83;0.60;;;24.50;76.50;;;;;;5074768;28;20021;-92
2022/07/10 09:46:27;;;;;;;1.60;0.65;;;24.70;75.60;;;;;;5056628;28;20048;-92
2022/07/10 09:49:19;;;;;;;1.75;1.00;;;24.90;74.70;;;;;;5076370;28;20024;-93
2022/07/10 09:51:46;;;;;;;2.20;1.00;;;25.00;73.90;;;;;;5071333;28;20032;-95
2022/07/10 09:54:12;;;;;;;1.17;0.68;;;25.20;73.60;;;;;;5061160;28;20032;-94
2022/07/10 09:56:47;;;;;;;1.50;0.70;;;25.40;73.10;;;;;;5064062;28;20017;-94
2022/07/10 09:59:15;;;;;;;1.83;1.15;;;25.60;72.10;;;;;;5075498;28;20028;-93
2022/07/10 10:01:48;;;;;;;1.02;0.70;;;25.70;71.30;;;;;;5066114;28;20028;-94
2022/07/10 10:04:25;;;;;;;0.73;0.73;;;25.80;70.40;;;;;;5066129;28;20028;-94
2022/07/10 10:06:56;;;;;;;1.38;0.63;;;25.90;69.80;;;;;;5066554;28;20085;-93
2022/07/10 10:09:34;;;;;;;0.95;0.60;;;26.00;69.30;;;;;;5079570;28;20020;-94
2022/07/10 10:12:15;;;;;;;1.10;0.65;;;26.10;69.00;;;;;;5057784;28;20032;-92
2022/07/10 10:14:41;;;;;;;0.90;0.75;;;26.20;68.20;;;;;;5065784;28;20032;-94
2022/07/10 10:17:08;;;;;;;0.63;0.50;;;26.40;67.90;;;;;;5054398;28;20005;-93
2022/07/10 10:22:23;;;;;;;1.52;0.82;;;26.60;66.80;;;;;;5080330;28;20031;-94
2022/07/10 10:24:50;;;;;;;1.65;0.90;;;26.70;66.20;;;;;;5063107;28;20042;-93
2022/07/10 10:27:17;;;;;;;1.35;0.60;;;26.80;66.30;;;;;;5063676;28;20112;-95
2022/07/10 10:29:46;;;;;;;4.05;0.70;;;27.00;66.30;;;;;;5054199;28;20028;-94
2022/07/10 10:32:12;;;;;;;4.15;0.70;;;27.20;66.10;;;;;;5090986;28;20027;-96
2022/07/10 10:34:42;;;;;;;1.05;0.95;;;27.40;65.60;;;;;;5076762;28;20067;-96
2022/07/10 10:37:27;;;;;;;2.25;0.75;;;27.50;64.90;;;;;;5070488;28;20089;-95
2022/07/10 10:39:54;;;;;;;1.20;0.80;;;27.60;64.30;;;;;;5078919;28;20048;-92
2022/07/10 10:42:34;;;;;;;2.55;0.90;;;27.70;64.20;;;;;;5086027;28;20036;-92
2022/07/10 10:45:38;;;;;;;2.25;1.00;;;27.80;64.30;;;;;;5099782;28;20040;-92
2022/07/10 10:48:15;;;;;;;1.13;0.80;;;28.00;64.20;;;;;;4959122;29;20031;-92
2022/07/10 10:50:51;;;;;;;2.00;0.77;;;28.10;63.70;;;;;;4945542;29;20114;-95
2022/07/10 10:53:22;;;;;;;1.20;0.70;;;28.20;63.50;;;;;;4937268;29;20071;-93
2022/07/10 10:56:00;;;;;;;1.02;0.65;;;28.10;62.90;;;;;;4944729;28;20073;-94
2022/07/10 10:58:27;;;;;;;4.13;0.93;;;28.20;62.80;;;;;;4956166;28;20030;-93
2022/07/10 11:01:05;;;;;;;3.95;1.23;;;28.20;62.80;;;;;;4959857;28;20034;-90
2022/07/10 11:03:31;;;;;;;0.90;0.80;;;28.40;63.00;;;;;;4972802;28;20038;-92
2022/07/10 11:05:57;;;;;;;1.50;0.60;;;28.50;62.50;;;;;;4961007;28;20039;-92
2022/07/10 11:08:43;;;;;;;1.58;0.77;;;28.40;61.90;;;;;;4958493;28;20035;-91
2022/07/10 11:11:30;;;;;;;2.42;0.90;;;28.40;62.20;;;;;;4978131;28;20074;-94
2022/07/10 11:14:03;;;;;;;1.75;0.65;;;28.50;61.80;;;;;;4963327;28;20612;-91
2022/07/10 11:16:32;;;;;;;3.00;0.70;;;28.60;61.70;;;;;;4959544;28;20039;-94
2022/07/10 11:19:01;;;;;;;0.70;0.70;;;28.60;61.30;;;;;;5020905;28;20502;-93
2022/07/10 11:21:33;;;;;;;1.38;0.68;;;28.80;60.90;;;;;;5024929;28;20039;-93
2022/07/10 11:24:23;;;;;;;0.75;0.50;;;28.90;60.50;;;;;;5039115;28;20076;-93
2022/07/10 11:27:19;;;;;;;1.08;0.68;;;29.00;60.50;;;;;;5041718;28;20480;-94
2022/07/10 11:29:47;;;;;;;0.60;0.55;;;29.10;60.00;;;;;;5069940;28;20496;-95
2022/07/10 11:32:16;;;;;;;2.90;0.80;;;29.20;59.90;;;;;;5065331;28;20109;-95
2022/07/10 11:34:43;;;;;;;1.25;0.65;;;29.20;59.40;;;;;;5076756;28;20019;-88
2022/07/10 11:37:16;;;;;;;1.13;0.60;;;29.10;59.20;;;;;;5080503;28;20020;-94
2022/07/10 11:39:42;;;;;;;1.83;0.70;;;29.20;59.40;;;;;;5080680;28;20047;-94
2022/07/10 11:42:07;;;;;;;2.92;0.68;;;29.40;59.30;;;;;;5078137;28;20048;-96
2022/07/10 11:44:34;;;;;;;0.70;0.50;;;29.60;59.00;;;;;;5078164;28;20024;-95
2022/07/10 11:47:02;;;;;;;1.33;0.60;;;29.80;58.80;;;;;;5065777;28;20021;-91
2022/07/10 11:49:28;;;;;;;1.85;0.60;;;29.90;58.30;;;;;;5096622;28;20017;-94
2022/07/10 11:51:56;;;;;;;0.82;0.40;;;29.80;57.60;;;;;;5074772;28;20044;-95
2022/07/10 11:54:22;;;;;;;2.55;0.70;;;29.90;57.70;;;;;;5056206;28;20010;-95
2022/07/10 11:56:53;;;;;;;1.35;0.40;;;30.10;57.80;;;;;;5073365;28;20510;-93
2022/07/10 11:59:29;;;;;;;1.00;0.47;;;30.20;57.20;;;;;;5078663;28;20085;-89
2022/07/10 12:01:57;;;;;;;2.33;0.50;;;30.30;56.70;;;;;;5080460;28;20032;-91
2022/07/10 12:04:25;;;;;;;0.75;0.40;;;30.50;56.50;;;;;;5080029;28;20032;-93
2022/07/10 12:06:53;;;;;;;1.25;0.60;;;30.50;55.90;;;;;;5078844;28;20016;-93
2022/07/10 12:09:27;;;;;;;2.60;0.60;;;30.60;55.70;;;;;;5080692;28;20013;-95
2022/07/10 12:12:04;;;;;;;1.75;0.50;;;30.60;55.10;;;;;;5094728;28;20024;-92
2022/07/10 12:14:30;;;;;;;1.55;0.57;;;30.60;55.10;;;;;;5075069;28;20029;-93
2022/07/10 12:16:58;;;;;;;0.88;0.50;;;30.60;54.80;;;;;;5085352;28;20021;-95
2022/07/10 12:19:37;;;;;;;1.27;0.50;;;30.70;54.60;;;;;;5074388;28;20052;-96
2022/07/10 12:22:04;;;;;;;1.42;0.50;;;30.80;54.30;;;;;;5074992;28;20028;-94
2022/07/10 12:24:30;;;;;;;1.13;0.50;;;30.70;54.50;;;;;;5077348;28;20037;-95
2022/07/10 12:26:56;;;;;;;3.42;0.50;;;30.60;54.20;;;;;;5070221;28;20067;-95
2022/07/10 12:29:28;;;;;;;0.95;0.50;;;30.50;54.20;;;;;;5066661;28;20116;-95
2022/07/10 12:31:55;;;;;;;0.52;0.38;;;30.50;54.00;;;;;;5064457;28;20575;-95
2022/07/10 12:34:42;;;;;;;2.25;0.30;;;30.70;54.20;;;;;;5090517;28;20029;-95
2022/07/10 12:37:10;;;;;;;0.93;0.50;;;30.70;53.30;;;;;;5095523;28;20115;-95
2022/07/10 12:39:50;;;;;;;1.77;0.50;;;30.50;54.30;;;;;;5077126;28;20036;-96
2022/07/10 12:42:27;;;;;;;1.35;0.50;;;30.50;54.60;;;;;;5087805;28;20019;-96
2022/07/10 12:44:52;;;;;;;0.65;0.40;;;30.60;53.80;;;;;;5076220;28;20064;-95
2022/07/10 12:47:24;;;;;;;0.50;0.50;;;30.70;53.20;;;;;;5072096;28;20036;-96
2022/07/10 12:49:51;;;;;;;0.50;0.50;;;30.70;52.80;;;;;;5072635;28;20029;-96
2022/07/10 12:52:24;;;;;;;0.77;0.40;;;30.70;52.80;;;;;;5068622;28;20028;-96
2022/07/10 12:55:13;;;;;;;0.80;0.40;;;30.80;52.70;;;;;;5089363;28;20020;-96
2022/07/10 12:57:48;;;;;;;1.10;0.63;;;30.80;52.50;;;;;;5057977;28;20112;-94
2022/07/10 13:00:20;;;;;;;1.25;0.60;;;30.90;52.40;;;;;;5056161;28;20053;-90
2022/07/10 13:02:53;;;;;;;0.60;0.47;;;31.00;52.20;;;;;;5076008;28;20017;-95
2022/07/10 13:05:44;;;;;;;0.70;0.40;;;30.90;52.00;;;;;;5057155;28;20049;-92